sensor_id;sensor_type;location;lat;lon;timestamp;P1;durP1;ratioP1;P2;durP2;ratioP2
9254;SDS011;4663;49.120;9.730;2023-02-17T00:01:12;41.83;;;39.47;;
9254;SDS011;4663;49.120;9.730;2023-02-17T00:03:44;35.87;;;33.83;;
9254;SDS011;4663;49.120;9.730;2023-02-17T00:06:12;36.77;;;34.70;;
9254;SDS011;4663;49.120;9.730;2023-02-17T00:08:39;33.03;;;31.23;;
9254;SDS011;4663;49.120;9.730;2023-02-17T00:11:05;33.33;;;31.40;;
9254;SDS011;4663;49.120;9.730;2023-02-17T00:13:30;27.70;;;25.80;;
9254;SDS011;4663;49.120;9.730;2023-02-17T00:15:56;25.07;;;23.43;;
9254;SDS011;4663;49.120;9.730;2023-02-17T00:18:21;24.87;;;23.33;;
9254;SDS011;4663;49.120;9.730;2023-02-17T00:20:47;22.33;;;20.80;;
9254;SDS011;4663;49.120;9.730;2023-02-17T00:23:12;21.70;;;20.47;;
9254;SDS011;4663;49.120;9.730;2023-02-17T00:25:37;22.27;;;20.97;;
9254;SDS011;4663;49.120;9.730;2023-02-17T00:28:03;22.87;;;21.33;;
9254;SDS011;4663;49.120;9.730;2023-02-17T00:30:29;23.60;;;21.97;;
9254;SDS011;4663;49.120;9.730;2023-02-17T00:32:54;25.37;;;23.73;;
9254;SDS011;4663;49.120;9.730;2023-02-17T00:35:19;23.53;;;22.20;;
9254;SDS011;4663;49.120;9.730;2023-02-17T00:37:45;27.53;;;25.87;;
9254;SDS011;4663;49.120;9.730;2023-02-17T00:40:11;27.10;;;25.40;;
9254;SDS011;4663;49.120;9.730;2023-02-17T00:42:37;27.53;;;25.83;;
9254;SDS011;4663;49.120;9.730;2023-02-17T00:45:02;25.40;;;23.93;;
9254;SDS011;4663;49.120;9.730;2023-02-17T00:47:28;27.37;;;25.73;;
9254;SDS011;4663;49.120;9.730;2023-02-17T00:49:54;26.57;;;25.03;;
9254;SDS011;4663;49.120;9.730;2023-02-17T00:52:19;29.33;;;27.60;;
9254;SDS011;4663;49.120;9.730;2023-02-17T00:57:20;34.37;;;32.50;;
9254;SDS011;4663;49.120;9.730;2023-02-17T00:59:45;33.77;;;30.97;;
9254;SDS011;4663;49.120;9.730;2023-02-17T01:02:10;35.30;;;33.37;;
9254;SDS011;4663;49.120;9.730;2023-02-17T01:04:36;39.00;;;36.47;;
9254;SDS011;4663;49.120;9.730;2023-02-17T01:07:01;37.47;;;35.53;;
9254;SDS011;4663;49.120;9.730;2023-02-17T01:09:26;38.80;;;36.63;;
9254;SDS011;4663;49.120;9.730;2023-02-17T01:11:52;39.93;;;37.73;;
9254;SDS011;4663;49.120;9.730;2023-02-17T01:14:17;39.80;;;37.73;;
9254;SDS011;4663;49.120;9.730;2023-02-17T01:16:44;41.80;;;39.27;;
9254;SDS011;4663;49.120;9.730;2023-02-17T01:19:13;41.43;;;39.27;;
9254;SDS011;4663;49.120;9.730;2023-02-17T01:21:40;43.13;;;40.93;;
9254;SDS011;4663;49.120;9.730;2023-02-17T01:24:06;44.87;;;42.37;;
9254;SDS011;4663;49.120;9.730;2023-02-17T01:26:33;45.17;;;42.73;;
9254;SDS011;4663;49.120;9.730;2023-02-17T01:29:00;45.50;;;43.20;;
9254;SDS011;4663;49.120;9.730;2023-02-17T01:31:26;44.97;;;42.63;;
9254;SDS011;4663;49.120;9.730;2023-02-17T01:33:52;47.70;;;45.10;;
9254;SDS011;4663;49.120;9.730;2023-02-17T01:36:20;43.77;;;41.50;;
9254;SDS011;4663;49.120;9.730;2023-02-17T01:38:45;43.77;;;41.57;;
9254;SDS011;4663;49.120;9.730;2023-02-17T01:41:11;44.57;;;42.00;;
9254;SDS011;4663;49.120;9.730;2023-02-17T01:43:38;47.60;;;44.90;;
9254;SDS011;4663;49.120;9.730;2023-02-17T01:46:04;45.77;;;43.37;;
9254;SDS011;4663;49.120;9.730;2023-02-17T01:51:17;47.13;;;44.63;;
9254;SDS011;4663;49.120;9.730;2023-02-17T01:53:49;42.60;;;40.33;;
9254;SDS011;4663;49.120;9.730;2023-02-17T01:56:19;43.27;;;40.97;;
9254;SDS011;4663;49.120;9.730;2023-02-17T01:58:52;43.07;;;40.77;;
9254;SDS011;4663;49.120;9.730;2023-02-17T02:01:29;38.17;;;36.10;;
9254;SDS011;4663;49.120;9.730;2023-02-17T02:03:55;39.80;;;37.70;;
9254;SDS011;4663;49.120;9.730;2023-02-17T02:06:24;39.17;;;36.70;;
9254;SDS011;4663;49.120;9.730;2023-02-17T02:08:58;40.43;;;38.27;;
9254;SDS011;4663;49.120;9.730;2023-02-17T02:11:28;42.73;;;40.57;;
9254;SDS011;4663;49.120;9.730;2023-02-17T02:13:53;43.17;;;40.97;;
9254;SDS011;4663;49.120;9.730;2023-02-17T02:41:30;43.07;;;40.87;;
9254;SDS011;4663;49.120;9.730;2023-02-17T02:44:02;43.90;;;41.67;;
9254;SDS011;4663;49.120;9.730;2023-02-17T02:46:31;44.23;;;41.80;;
9254;SDS011;4663;49.120;9.730;2023-02-17T02:48:57;40.10;;;37.90;;
9254;SDS011;4663;49.120;9.730;2023-02-17T02:56:59;40.50;;;38.47;;
9254;SDS011;4663;49.120;9.730;2023-02-17T03:04:37;42.83;;;40.63;;
9254;SDS011;4663;49.120;9.730;2023-02-17T03:09:54;38.03;;;36.03;;
9254;SDS011;4663;49.120;9.730;2023-02-17T03:12:22;37.07;;;35.10;;
9254;SDS011;4663;49.120;9.730;2023-02-17T03:14:49;38.87;;;36.83;;
9254;SDS011;4663;49.120;9.730;2023-02-17T03:17:17;36.00;;;33.60;;
9254;SDS011;4663;49.120;9.730;2023-02-17T03:19:42;36.70;;;34.83;;
9254;SDS011;4663;49.120;9.730;2023-02-17T03:24:40;33.10;;;31.43;;
9254;SDS011;4663;49.120;9.730;2023-02-17T03:27:06;32.03;;;30.40;;
9254;SDS011;4663;49.120;9.730;2023-02-17T03:29:31;35.03;;;33.13;;
9254;SDS011;4663;49.120;9.730;2023-02-17T03:31:57;33.80;;;32.03;;
9254;SDS011;4663;49.120;9.730;2023-02-17T03:34:22;32.13;;;30.33;;
9254;SDS011;4663;49.120;9.730;2023-02-17T03:36:48;32.30;;;30.53;;
9254;SDS011;4663;49.120;9.730;2023-02-17T03:39:13;33.13;;;31.27;;
9254;SDS011;4663;49.120;9.730;2023-02-17T03:41:38;31.40;;;29.63;;
9254;SDS011;4663;49.120;9.730;2023-02-17T03:44:04;30.90;;;29.37;;
9254;SDS011;4663;49.120;9.730;2023-02-17T03:46:29;30.63;;;28.90;;
9254;SDS011;4663;49.120;9.730;2023-02-17T03:48:54;29.50;;;27.90;;
9254;SDS011;4663;49.120;9.730;2023-02-17T03:51:21;30.17;;;28.20;;
9254;SDS011;4663;49.120;9.730;2023-02-17T03:53:47;27.70;;;25.97;;
9254;SDS011;4663;49.120;9.730;2023-02-17T03:56:14;28.33;;;26.77;;
9254;SDS011;4663;49.120;9.730;2023-02-17T03:58:41;28.93;;;27.37;;
9254;SDS011;4663;49.120;9.730;2023-02-17T04:01:07;31.23;;;29.37;;
9254;SDS011;4663;49.120;9.730;2023-02-17T04:03:34;28.57;;;26.97;;
9254;SDS011;4663;49.120;9.730;2023-02-17T04:06:00;29.50;;;28.03;;
9254;SDS011;4663;49.120;9.730;2023-02-17T04:08:26;28.97;;;27.43;;
9254;SDS011;4663;49.120;9.730;2023-02-17T04:10:52;27.23;;;25.70;;
9254;SDS011;4663;49.120;9.730;2023-02-17T04:13:19;28.37;;;26.83;;
9254;SDS011;4663;49.120;9.730;2023-02-17T04:15:44;28.33;;;26.87;;
9254;SDS011;4663;49.120;9.730;2023-02-17T04:18:09;27.87;;;26.40;;
9254;SDS011;4663;49.120;9.730;2023-02-17T04:20:35;30.03;;;28.23;;
9254;SDS011;4663;49.120;9.730;2023-02-17T04:23:00;29.77;;;28.20;;
9254;SDS011;4663;49.120;9.730;2023-02-17T04:25:25;40.63;;;38.50;;
9254;SDS011;4663;49.120;9.730;2023-02-17T04:27:51;29.40;;;27.87;;
9254;SDS011;4663;49.120;9.730;2023-02-17T04:30:16;30.97;;;29.27;;
9254;SDS011;4663;49.120;9.730;2023-02-17T04:32:42;30.93;;;29.07;;
9254;SDS011;4663;49.120;9.730;2023-02-17T04:35:07;30.53;;;28.80;;
9254;SDS011;4663;49.120;9.730;2023-02-17T04:37:33;28.60;;;27.00;;
9254;SDS011;4663;49.120;9.730;2023-02-17T04:39:58;28.57;;;27.03;;
9254;SDS011;4663;49.120;9.730;2023-02-17T04:42:23;27.07;;;25.63;;
9254;SDS011;4663;49.120;9.730;2023-02-17T04:44:49;25.40;;;23.90;;
9254;SDS011;4663;49.120;9.730;2023-02-17T04:47:14;24.60;;;23.20;;
9254;SDS011;4663;49.120;9.730;2023-02-17T04:49:40;25.83;;;24.27;;
9254;SDS011;4663;49.120;9.730;2023-02-17T04:52:05;25.00;;;23.63;;
9254;SDS011;4663;49.120;9.730;2023-02-17T04:54:30;23.83;;;22.33;;
9254;SDS011;4663;49.120;9.730;2023-02-17T04:56:56;23.40;;;21.73;;
9254;SDS011;4663;49.120;9.730;2023-02-17T04:59:21;23.50;;;22.17;;
9254;SDS011;4663;49.120;9.730;2023-02-17T05:01:46;22.80;;;21.60;;
9254;SDS011;4663;49.120;9.730;2023-02-17T05:04:12;21.53;;;20.33;;
9254;SDS011;4663;49.120;9.730;2023-02-17T05:06:37;21.33;;;20.23;;
9254;SDS011;4663;49.120;9.730;2023-02-17T05:09:02;19.37;;;18.23;;
9254;SDS011;4663;49.120;9.730;2023-02-17T05:11:28;18.33;;;17.13;;
9254;SDS011;4663;49.120;9.730;2023-02-17T05:13:53;19.07;;;17.93;;
9254;SDS011;4663;49.120;9.730;2023-02-17T05:16:18;16.60;;;15.57;;
9254;SDS011;4663;49.120;9.730;2023-02-17T05:18:44;16.33;;;15.33;;
9254;SDS011;4663;49.120;9.730;2023-02-17T05:21:09;16.37;;;15.27;;
9254;SDS011;4663;49.120;9.730;2023-02-17T05:23:35;16.50;;;15.40;;
9254;SDS011;4663;49.120;9.730;2023-02-17T05:26:05;16.87;;;15.87;;
9254;SDS011;4663;49.120;9.730;2023-02-17T05:28:31;16.40;;;15.30;;
9254;SDS011;4663;49.120;9.730;2023-02-17T05:30:57;16.40;;;15.07;;
9254;SDS011;4663;49.120;9.730;2023-02-17T05:33:22;16.33;;;14.93;;
9254;SDS011;4663;49.120;9.730;2023-02-17T05:35:47;16.03;;;14.93;;
9254;SDS011;4663;49.120;9.730;2023-02-17T05:38:13;14.70;;;13.80;;
9254;SDS011;4663;49.120;9.730;2023-02-17T05:40:38;15.27;;;14.37;;
9254;SDS011;4663;49.120;9.730;2023-02-17T05:43:03;15.70;;;14.70;;
9254;SDS011;4663;49.120;9.730;2023-02-17T05:45:29;14.77;;;13.87;;
9254;SDS011;4663;49.120;9.730;2023-02-17T05:47:54;14.50;;;13.60;;
9254;SDS011;4663;49.120;9.730;2023-02-17T05:50:19;15.40;;;14.23;;
9254;SDS011;4663;49.120;9.730;2023-02-17T05:52:45;16.23;;;15.30;;
9254;SDS011;4663;49.120;9.730;2023-02-17T05:55:10;15.00;;;14.00;;
9254;SDS011;4663;49.120;9.730;2023-02-17T05:57:35;15.27;;;14.23;;
9254;SDS011;4663;49.120;9.730;2023-02-17T06:00:01;16.03;;;14.93;;
9254;SDS011;4663;49.120;9.730;2023-02-17T06:02:27;15.53;;;14.53;;
9254;SDS011;4663;49.120;9.730;2023-02-17T06:04:53;30.20;;;28.67;;
9254;SDS011;4663;49.120;9.730;2023-02-17T06:07:18;17.63;;;16.53;;
9254;SDS011;4663;49.120;9.730;2023-02-17T06:09:43;17.97;;;16.87;;
9254;SDS011;4663;49.120;9.730;2023-02-17T06:12:09;16.47;;;15.57;;
9254;SDS011;4663;49.120;9.730;2023-02-17T06:14:34;17.17;;;16.17;;
9254;SDS011;4663;49.120;9.730;2023-02-17T06:16:59;16.37;;;15.43;;
9254;SDS011;4663;49.120;9.730;2023-02-17T06:19:27;15.90;;;14.93;;
9254;SDS011;4663;49.120;9.730;2023-02-17T06:21:53;16.10;;;15.17;;
9254;SDS011;4663;49.120;9.730;2023-02-17T06:24:21;15.97;;;14.77;;
9254;SDS011;4663;49.120;9.730;2023-02-17T06:26:46;14.77;;;13.67;;
9254;SDS011;4663;49.120;9.730;2023-02-17T06:29:13;15.10;;;14.20;;
9254;SDS011;4663;49.120;9.730;2023-02-17T06:31:38;15.50;;;14.53;;
9254;SDS011;4663;49.120;9.730;2023-02-17T06:34:05;15.70;;;14.70;;
9254;SDS011;4663;49.120;9.730;2023-02-17T06:36:30;15.87;;;14.87;;
9254;SDS011;4663;49.120;9.730;2023-02-17T06:38:55;15.27;;;14.27;;
9254;SDS011;4663;49.120;9.730;2023-02-17T06:41:21;15.70;;;14.80;;
9254;SDS011;4663;49.120;9.730;2023-02-17T06:43:46;16.73;;;15.73;;
9254;SDS011;4663;49.120;9.730;2023-02-17T06:46:12;16.33;;;15.17;;
9254;SDS011;4663;49.120;9.730;2023-02-17T06:48:37;15.57;;;14.60;;
9254;SDS011;4663;49.120;9.730;2023-02-17T06:51:02;16.00;;;14.97;;
9254;SDS011;4663;49.120;9.730;2023-02-17T06:53:28;16.07;;;14.97;;
9254;SDS011;4663;49.120;9.730;2023-02-17T06:55:53;16.43;;;14.97;;
9254;SDS011;4663;49.120;9.730;2023-02-17T06:58:19;14.10;;;13.20;;
9254;SDS011;4663;49.120;9.730;2023-02-17T07:00:44;15.27;;;14.37;;
9254;SDS011;4663;49.120;9.730;2023-02-17T07:03:09;16.10;;;15.17;;
9254;SDS011;4663;49.120;9.730;2023-02-17T07:05:35;15.83;;;14.83;;
9254;SDS011;4663;49.120;9.730;2023-02-17T07:08:03;16.17;;;15.17;;
9254;SDS011;4663;49.120;9.730;2023-02-17T07:10:28;20.10;;;18.50;;
9254;SDS011;4663;49.120;9.730;2023-02-17T07:12:54;17.33;;;15.93;;
9254;SDS011;4663;49.120;9.730;2023-02-17T07:15:20;18.17;;;16.90;;
9254;SDS011;4663;49.120;9.730;2023-02-17T07:17:45;16.23;;;15.07;;
9254;SDS011;4663;49.120;9.730;2023-02-17T07:20:11;16.40;;;15.03;;
9254;SDS011;4663;49.120;9.730;2023-02-17T07:22:36;16.73;;;15.63;;
9254;SDS011;4663;49.120;9.730;2023-02-17T07:25:02;17.00;;;15.97;;
9254;SDS011;4663;49.120;9.730;2023-02-17T07:27:28;17.80;;;16.60;;
9254;SDS011;4663;49.120;9.730;2023-02-17T07:29:55;16.87;;;15.67;;
9254;SDS011;4663;49.120;9.730;2023-02-17T07:32:21;21.40;;;19.47;;
9254;SDS011;4663;49.120;9.730;2023-02-17T07:34:46;23.77;;;21.57;;
9254;SDS011;4663;49.120;9.730;2023-02-17T07:37:12;19.77;;;18.27;;
9254;SDS011;4663;49.120;9.730;2023-02-17T07:39:37;18.07;;;16.80;;
9254;SDS011;4663;49.120;9.730;2023-02-17T07:42:03;22.67;;;20.77;;
9254;SDS011;4663;49.120;9.730;2023-02-17T07:44:30;18.67;;;17.30;;
9254;SDS011;4663;49.120;9.730;2023-02-17T07:46:58;19.03;;;17.53;;
9254;SDS011;4663;49.120;9.730;2023-02-17T07:49:23;34.87;;;31.13;;
9254;SDS011;4663;49.120;9.730;2023-02-17T07:51:49;22.60;;;20.70;;
9254;SDS011;4663;49.120;9.730;2023-02-17T07:54:14;19.50;;;18.27;;
9254;SDS011;4663;49.120;9.730;2023-02-17T07:56:39;22.87;;;21.57;;
9254;SDS011;4663;49.120;9.730;2023-02-17T07:59:11;21.33;;;20.00;;
9254;SDS011;4663;49.120;9.730;2023-02-17T08:01:37;21.60;;;20.23;;
9254;SDS011;4663;49.120;9.730;2023-02-17T08:04:03;24.40;;;22.97;;
9254;SDS011;4663;49.120;9.730;2023-02-17T08:06:31;24.80;;;23.20;;
9254;SDS011;4663;49.120;9.730;2023-02-17T08:08:57;24.03;;;22.43;;
9254;SDS011;4663;49.120;9.730;2023-02-17T08:11:41;23.27;;;21.90;;
9254;SDS011;4663;49.120;9.730;2023-02-17T08:14:26;25.07;;;23.43;;
9254;SDS011;4663;49.120;9.730;2023-02-17T08:16:54;27.10;;;25.57;;
9254;SDS011;4663;49.120;9.730;2023-02-17T08:19:20;28.10;;;26.47;;
9254;SDS011;4663;49.120;9.730;2023-02-17T08:21:46;31.07;;;29.37;;
9254;SDS011;4663;49.120;9.730;2023-02-17T08:24:12;32.40;;;30.67;;
9254;SDS011;4663;49.120;9.730;2023-02-17T08:26:38;35.77;;;33.90;;
9254;SDS011;4663;49.120;9.730;2023-02-17T08:29:03;35.63;;;33.73;;
9254;SDS011;4663;49.120;9.730;2023-02-17T08:31:30;37.17;;;35.33;;
9254;SDS011;4663;49.120;9.730;2023-02-17T08:33:58;37.00;;;35.10;;
9254;SDS011;4663;49.120;9.730;2023-02-17T08:36:24;34.83;;;32.93;;
9254;SDS011;4663;49.120;9.730;2023-02-17T08:38:53;37.13;;;35.03;;
9254;SDS011;4663;49.120;9.730;2023-02-17T08:43:47;35.95;;;33.90;;
9254;SDS011;4663;49.120;9.730;2023-02-17T08:46:13;37.10;;;35.27;;
9254;SDS011;4663;49.120;9.730;2023-02-17T08:48:40;35.27;;;33.57;;
9254;SDS011;4663;49.120;9.730;2023-02-17T08:51:05;36.28;;;34.35;;
9254;SDS011;4663;49.120;9.730;2023-02-17T08:53:32;36.00;;;34.17;;
9254;SDS011;4663;49.120;9.730;2023-02-17T08:55:58;37.83;;;35.80;;
9254;SDS011;4663;49.120;9.730;2023-02-17T08:58:24;35.58;;;33.35;;
9254;SDS011;4663;49.120;9.730;2023-02-17T09:00:49;35.77;;;33.87;;
9254;SDS011;4663;49.120;9.730;2023-02-17T09:03:14;36.83;;;34.87;;
9254;SDS011;4663;49.120;9.730;2023-02-17T09:05:40;39.30;;;37.23;;
9254;SDS011;4663;49.120;9.730;2023-02-17T09:08:06;35.97;;;33.93;;
9254;SDS011;4663;49.120;9.730;2023-02-17T09:10:31;34.47;;;32.63;;
9254;SDS011;4663;49.120;9.730;2023-02-17T09:12:57;38.63;;;36.73;;
9254;SDS011;4663;49.120;9.730;2023-02-17T09:15:22;35.38;;;33.38;;
9254;SDS011;4663;49.120;9.730;2023-02-17T09:17:48;33.35;;;31.55;;
9254;SDS011;4663;49.120;9.730;2023-02-17T09:20:13;32.53;;;30.65;;
9254;SDS011;4663;49.120;9.730;2023-02-17T09:22:39;26.80;;;25.42;;
9254;SDS011;4663;49.120;9.730;2023-02-17T09:25:05;27.00;;;25.65;;
9254;SDS011;4663;49.120;9.730;2023-02-17T09:27:30;27.33;;;25.93;;
9254;SDS011;4663;49.120;9.730;2023-02-17T09:29:56;25.40;;;24.07;;
9254;SDS011;4663;49.120;9.730;2023-02-17T09:32:21;25.17;;;23.90;;
9254;SDS011;4663;49.120;9.730;2023-02-17T09:34:47;28.23;;;26.85;;
9254;SDS011;4663;49.120;9.730;2023-02-17T09:37:17;26.23;;;24.70;;
9254;SDS011;4663;49.120;9.730;2023-02-17T09:39:43;23.35;;;22.13;;
9254;SDS011;4663;49.120;9.730;2023-02-17T09:42:17;21.75;;;20.65;;
9254;SDS011;4663;49.120;9.730;2023-02-17T09:44:46;21.27;;;20.20;;
9254;SDS011;4663;49.120;9.730;2023-02-17T09:47:19;21.98;;;20.90;;
9254;SDS011;4663;49.120;9.730;2023-02-17T09:49:55;24.60;;;23.40;;
9254;SDS011;4663;49.120;9.730;2023-02-17T09:52:34;19.87;;;18.77;;
9254;SDS011;4663;49.120;9.730;2023-02-17T09:55:06;19.23;;;18.30;;
9254;SDS011;4663;49.120;9.730;2023-02-17T09:57:39;15.38;;;14.57;;
9254;SDS011;4663;49.120;9.730;2023-02-17T10:00:12;14.02;;;13.25;;
9254;SDS011;4663;49.120;9.730;2023-02-17T10:05:34;15.65;;;14.85;;
9254;SDS011;4663;49.120;9.730;2023-02-17T10:08:26;15.25;;;14.35;;
9254;SDS011;4663;49.120;9.730;2023-02-17T10:11:14;14.60;;;13.80;;
9254;SDS011;4663;49.120;9.730;2023-02-17T10:13:47;13.48;;;12.57;;
9254;SDS011;4663;49.120;9.730;2023-02-17T10:16:21;13.75;;;13.05;;
9254;SDS011;4663;49.120;9.730;2023-02-17T10:18:56;13.18;;;12.48;;
9254;SDS011;4663;49.120;9.730;2023-02-17T10:21:29;13.45;;;12.65;;
9254;SDS011;4663;49.120;9.730;2023-02-17T10:23:59;14.63;;;13.82;;
9254;SDS011;4663;49.120;9.730;2023-02-17T10:29:42;14.88;;;14.07;;
9254;SDS011;4663;49.120;9.730;2023-02-17T10:32:20;13.70;;;12.88;;
9254;SDS011;4663;49.120;9.730;2023-02-17T10:37:42;15.27;;;14.48;;
9254;SDS011;4663;49.120;9.730;2023-02-17T10:40:14;16.15;;;15.23;;
9254;SDS011;4663;49.120;9.730;2023-02-17T10:42:40;15.63;;;14.82;;
9254;SDS011;4663;49.120;9.730;2023-02-17T10:48:03;14.57;;;13.88;;
9254;SDS011;4663;49.120;9.730;2023-02-17T10:50:40;16.65;;;15.75;;
9254;SDS011;4663;49.120;9.730;2023-02-17T10:53:13;16.48;;;15.57;;
9254;SDS011;4663;49.120;9.730;2023-02-17T10:55:49;15.93;;;15.13;;
9254;SDS011;4663;49.120;9.730;2023-02-17T11:01:03;17.98;;;17.00;;
9254;SDS011;4663;49.120;9.730;2023-02-17T11:03:30;18.98;;;17.77;;
9254;SDS011;4663;49.120;9.730;2023-02-17T11:05:58;17.23;;;16.35;;
9254;SDS011;4663;49.120;9.730;2023-02-17T11:08:30;17.65;;;16.70;;
9254;SDS011;4663;49.120;9.730;2023-02-17T11:11:03;18.13;;;17.20;;
9254;SDS011;4663;49.120;9.730;2023-02-17T11:14:03;16.70;;;15.85;;
9254;SDS011;4663;49.120;9.730;2023-02-17T11:16:46;19.30;;;18.20;;
9254;SDS011;4663;49.120;9.730;2023-02-17T11:21:58;20.35;;;18.85;;
9254;SDS011;4663;49.120;9.730;2023-02-17T11:24:24;17.70;;;16.60;;
9254;SDS011;4663;49.120;9.730;2023-02-17T11:26:55;18.98;;;17.77;;
9254;SDS011;4663;49.120;9.730;2023-02-17T11:29:23;18.55;;;17.50;;
9254;SDS011;4663;49.120;9.730;2023-02-17T11:31:52;18.15;;;17.05;;
9254;SDS011;4663;49.120;9.730;2023-02-17T11:34:24;19.50;;;18.50;;
9254;SDS011;4663;49.120;9.730;2023-02-17T11:37:04;19.65;;;18.65;;
9254;SDS011;4663;49.120;9.730;2023-02-17T11:39:35;21.40;;;20.05;;
9254;SDS011;4663;49.120;9.730;2023-02-17T11:42:32;21.45;;;20.35;;
9254;SDS011;4663;49.120;9.730;2023-02-17T11:44:58;21.77;;;20.67;;
9254;SDS011;4663;49.120;9.730;2023-02-17T12:06:23;23.42;;;22.23;;
9254;SDS011;4663;49.120;9.730;2023-02-17T12:23:48;24.63;;;23.42;;
9254;SDS011;4663;49.120;9.730;2023-02-17T12:36:54;26.25;;;24.88;;
9254;SDS011;4663;49.120;9.730;2023-02-17T12:39:22;28.83;;;27.33;;
9254;SDS011;4663;49.120;9.730;2023-02-17T12:41:57;29.40;;;28.00;;
9254;SDS011;4663;49.120;9.730;2023-02-17T12:44:36;28.30;;;27.00;;
9254;SDS011;4663;49.120;9.730;2023-02-17T12:47:08;28.80;;;27.40;;
9254;SDS011;4663;49.120;9.730;2023-02-17T12:52:37;29.98;;;28.42;;
9254;SDS011;4663;49.120;9.730;2023-02-17T12:55:10;27.00;;;25.77;;
9254;SDS011;4663;49.120;9.730;2023-02-17T12:57:48;27.42;;;26.08;;
9254;SDS011;4663;49.120;9.730;2023-02-17T13:00:39;29.23;;;27.83;;
9254;SDS011;4663;49.120;9.730;2023-02-17T13:03:08;27.85;;;26.55;;
9254;SDS011;4663;49.120;9.730;2023-02-17T13:05:39;28.65;;;27.27;;
9254;SDS011;4663;49.120;9.730;2023-02-17T13:11:01;44.13;;;42.10;;
9254;SDS011;4663;49.120;9.730;2023-02-17T13:13:32;29.00;;;27.60;;
9254;SDS011;4663;49.120;9.730;2023-02-17T13:18:48;29.38;;;27.95;;
9254;SDS011;4663;49.120;9.730;2023-02-17T13:24:01;27.63;;;26.33;;
9254;SDS011;4663;49.120;9.730;2023-02-17T13:26:36;24.23;;;23.10;;
9254;SDS011;4663;49.120;9.730;2023-02-17T13:29:08;26.85;;;25.55;;
9254;SDS011;4663;49.120;9.730;2023-02-17T13:31:43;24.55;;;23.42;;
9254;SDS011;4663;49.120;9.730;2023-02-17T13:34:36;21.45;;;20.45;;
9254;SDS011;4663;49.120;9.730;2023-02-17T13:42:40;21.83;;;20.73;;
9254;SDS011;4663;49.120;9.730;2023-02-17T13:45:52;23.23;;;22.05;;
9254;SDS011;4663;49.120;9.730;2023-02-17T13:48:00;21.25;;;20.25;;
9254;SDS011;4663;49.120;9.730;2023-02-17T13:50:38;23.00;;;21.83;;
9254;SDS011;4663;49.120;9.730;2023-02-17T13:55:57;20.45;;;19.42;;
9254;SDS011;4663;49.120;9.730;2023-02-17T13:58:34;20.42;;;19.42;;
9254;SDS011;4663;49.120;9.730;2023-02-17T14:01:03;23.02;;;21.77;;
9254;SDS011;4663;49.120;9.730;2023-02-17T14:03:34;21.20;;;20.20;;
9254;SDS011;4663;49.120;9.730;2023-02-17T14:06:11;21.73;;;20.63;;
9254;SDS011;4663;49.120;9.730;2023-02-17T14:08:45;23.58;;;22.35;;
9254;SDS011;4663;49.120;9.730;2023-02-17T14:11:12;23.00;;;21.85;;
9254;SDS011;4663;49.120;9.730;2023-02-17T14:13:44;21.08;;;20.08;;
9254;SDS011;4663;49.120;9.730;2023-02-17T14:21:26;23.20;;;22.15;;
9254;SDS011;4663;49.120;9.730;2023-02-17T14:23:53;20.90;;;19.90;;
9254;SDS011;4663;49.120;9.730;2023-02-17T14:26:28;21.30;;;20.30;;
9254;SDS011;4663;49.120;9.730;2023-02-17T14:29:02;21.40;;;20.40;;
9254;SDS011;4663;49.120;9.730;2023-02-17T14:31:36;21.38;;;20.38;;
9254;SDS011;4663;49.120;9.730;2023-02-17T14:34:34;19.95;;;19.02;;
9254;SDS011;4663;49.120;9.730;2023-02-17T14:37:06;18.38;;;17.52;;
9254;SDS011;4663;49.120;9.730;2023-02-17T14:39:33;17.40;;;16.60;;
9254;SDS011;4663;49.120;9.730;2023-02-17T14:41:59;16.88;;;16.08;;
9254;SDS011;4663;49.120;9.730;2023-02-17T14:44:24;17.70;;;16.80;;
9254;SDS011;4663;49.120;9.730;2023-02-17T14:46:49;17.67;;;16.75;;
9254;SDS011;4663;49.120;9.730;2023-02-17T14:49:15;18.42;;;17.50;;
9254;SDS011;4663;49.120;9.730;2023-02-17T14:51:40;18.20;;;17.35;;
9254;SDS011;4663;49.120;9.730;2023-02-17T14:54:10;16.10;;;15.30;;
9254;SDS011;4663;49.120;9.730;2023-02-17T14:56:40;17.77;;;16.98;;
9254;SDS011;4663;49.120;9.730;2023-02-17T14:59:21;18.17;;;17.27;;
9254;SDS011;4663;49.120;9.730;2023-02-17T15:01:47;18.60;;;17.70;;
9254;SDS011;4663;49.120;9.730;2023-02-17T15:04:12;16.95;;;16.15;;
9254;SDS011;4663;49.120;9.730;2023-02-17T15:06:39;16.48;;;15.68;;
9254;SDS011;4663;49.120;9.730;2023-02-17T15:09:13;18.75;;;17.85;;
9254;SDS011;4663;49.120;9.730;2023-02-17T15:11:40;17.73;;;16.83;;
9254;SDS011;4663;49.120;9.730;2023-02-17T15:14:13;18.70;;;17.80;;
9254;SDS011;4663;49.120;9.730;2023-02-17T15:16:40;18.42;;;17.52;;
9254;SDS011;4663;49.120;9.730;2023-02-17T15:19:07;17.40;;;16.58;;
9254;SDS011;4663;49.120;9.730;2023-02-17T15:21:34;17.80;;;16.92;;
9254;SDS011;4663;49.120;9.730;2023-02-17T15:24:02;19.73;;;18.80;;
9254;SDS011;4663;49.120;9.730;2023-02-17T15:26:30;19.15;;;18.05;;
9254;SDS011;4663;49.120;9.730;2023-02-17T15:28:56;18.38;;;17.40;;
9254;SDS011;4663;49.120;9.730;2023-02-17T15:31:22;18.33;;;17.35;;
9254;SDS011;4663;49.120;9.730;2023-02-17T15:33:56;19.00;;;18.10;;
9254;SDS011;4663;49.120;9.730;2023-02-17T15:36:23;20.02;;;19.02;;
9254;SDS011;4663;49.120;9.730;2023-02-17T15:38:49;18.98;;;17.98;;
9254;SDS011;4663;49.120;9.730;2023-02-17T15:41:24;17.38;;;16.58;;
9254;SDS011;4663;49.120;9.730;2023-02-17T15:43:51;20.23;;;19.23;;
9254;SDS011;4663;49.120;9.730;2023-02-17T15:46:19;19.50;;;18.60;;
9254;SDS011;4663;49.120;9.730;2023-02-17T15:48:49;22.52;;;21.50;;
9254;SDS011;4663;49.120;9.730;2023-02-17T15:51:15;22.52;;;21.45;;
9254;SDS011;4663;49.120;9.730;2023-02-17T15:53:43;20.67;;;19.70;;
9254;SDS011;4663;49.120;9.730;2023-02-17T15:56:20;21.75;;;20.73;;
9254;SDS011;4663;49.120;9.730;2023-02-17T15:58:48;21.67;;;20.60;;
9254;SDS011;4663;49.120;9.730;2023-02-17T16:01:35;21.83;;;20.70;;
9254;SDS011;4663;49.120;9.730;2023-02-17T16:04:00;22.40;;;21.38;;
9254;SDS011;4663;49.120;9.730;2023-02-17T16:06:26;22.17;;;21.13;;
9254;SDS011;4663;49.120;9.730;2023-02-17T16:08:52;37.08;;;35.38;;
9254;SDS011;4663;49.120;9.730;2023-02-17T16:11:18;24.35;;;23.08;;
9254;SDS011;4663;49.120;9.730;2023-02-17T16:13:45;24.98;;;23.83;;
9254;SDS011;4663;49.120;9.730;2023-02-17T16:18:43;25.17;;;24.02;;
9254;SDS011;4663;49.120;9.730;2023-02-17T16:21:09;26.20;;;24.98;;
9254;SDS011;4663;49.120;9.730;2023-02-17T16:23:36;25.90;;;24.73;;
9254;SDS011;4663;49.120;9.730;2023-02-17T16:26:02;25.65;;;24.42;;
9254;SDS011;4663;49.120;9.730;2023-02-17T16:28:28;25.60;;;24.38;;
9254;SDS011;4663;49.120;9.730;2023-02-17T16:30:55;27.73;;;26.42;;
9254;SDS011;4663;49.120;9.730;2023-02-17T16:33:20;36.90;;;35.15;;
9254;SDS011;4663;49.120;9.730;2023-02-17T16:35:48;27.00;;;25.77;;
9254;SDS011;4663;49.120;9.730;2023-02-17T16:38:15;28.33;;;26.98;;
9254;SDS011;4663;49.120;9.730;2023-02-17T16:40:45;27.55;;;26.27;;
9254;SDS011;4663;49.120;9.730;2023-02-17T16:43:13;26.50;;;25.25;;
9254;SDS011;4663;49.120;9.730;2023-02-17T16:45:44;27.85;;;26.55;;
9254;SDS011;4663;49.120;9.730;2023-02-17T16:48:15;27.45;;;26.15;;
9254;SDS011;4663;49.120;9.730;2023-02-17T16:50:40;28.75;;;27.20;;
9254;SDS011;4663;49.120;9.730;2023-02-17T16:53:06;27.90;;;26.60;;
9254;SDS011;4663;49.120;9.730;2023-02-17T16:55:33;27.33;;;26.02;;
9254;SDS011;4663;49.120;9.730;2023-02-17T16:58:00;27.98;;;26.67;;
9254;SDS011;4663;49.120;9.730;2023-02-17T17:00:27;28.10;;;26.80;;
9254;SDS011;4663;49.120;9.730;2023-02-17T17:02:55;27.85;;;26.55;;
9254;SDS011;4663;49.120;9.730;2023-02-17T17:05:21;27.67;;;26.35;;
9254;SDS011;4663;49.120;9.730;2023-02-17T17:07:47;26.35;;;25.05;;
9254;SDS011;4663;49.120;9.730;2023-02-17T17:10:19;29.38;;;28.00;;
9254;SDS011;4663;49.120;9.730;2023-02-17T17:12:47;27.33;;;26.05;;